Tiempo atmosférico en la estación meteorológica de Ourense, Ourense (143 m.)



Fecha
DESCASC
Temp. máxima en grados centígrados (hora)
DESCASC
Temp. mínima en grados centígrados (hora)
DESCASC
Temp. media en grados centígrados
DESCASC
Racha de viento máxima en m/sg (hora)
DESCASC
Velocidad máxima media en intervalos de 10 minutos(hora)
DESCASC
Precipitaciones diarias en mm
DESCASC
Precipitaciones de 00:00 a 06:00 en mm
DESCASC
Precipitaciones de 06:00 a 12:00 en mm
DESCASC
Precipitaciones de 12:00 a 18:00 en mm
DESCASC
Precipitaciones de 18:00 a 24:00 en mm
DESCASC
22-01-2020 16.6 (16:20) 4.9 (08:40) 10.8 9.72 (15:00) 4.17 (14:20) 0 0 0 0 0
21-01-2020 13.3 (16:50) -0.7 (08:00) 6.3 8.61 (15:20) 3.89 (17:20) 0 0 0 0 0
20-01-2020 12.4 (16:00) 0.9 (04:20) 6.6 9.17 (14:50) 3.33 (14:50) 0 0 0 0 0
19-01-2020 13.9 (15:40) 4 (00:00) 8.9 7.5 (14:30) 3.61 (14:30) 0 0 0 0 0
18-01-2020 16.6 (13:00) 6.9 (00:00) 11.8 11.11 (14:30) 5.28 (14:40) 7.8 0.2 0 2.2 5.4
17-01-2020 11.6 (14:00) 5.9 (00:00) 8.8 4.17 (00:50) 2.22 (00:30) 1.6 1 0.6 0 0
16-01-2020 15.6 (10:00) 9.9 (00:00) 12.8 14.17 (18:20) 4.72 (15:40) 10.6 1.4 0 0 9.2
15-01-2020 17.4 (17:10) 10 (00:00) 13.7 12.78 (04:20) 5.56 (04:00) 21 9.2 11.8 0 0
14-01-2020 16.4 (14:30) 10.3 (00:00) 13.3 11.39 (15:20) 5 (15:20) 0 0 0 0 0
13-01-2020 14.5 (15:20) 0 (00:00) 7.3 9.72 (19:30) 4.44 (23:40) 0 0 0 0 0
12-01-2020 8.2 (17:30) -0.5 (-00:0) 3.8 3.33 (09:30) 1.94 (09:40) 0 0 0 0 0
11-01-2020 8.7 (17:40) 0.3 (00:00) 4.5 2.78 (09:40) 1.39 (07:30) 0 0 0 0 0
10-01-2020 12.9 (17:20) 1.6 (00:00) 7.2 3.89 (17:20) 1.67 (09:00) 0 0 0 0 0
09-01-2020 17.4 (13:40) 4.1 (00:00) 10.7 14.17 (14:10) 5 (14:10) 0.2 0 0 0.2 0
08-01-2020 9.5 (17:10) -0.4 (00:00) 4.5 2.22 (15:40) 1.39 (15:40) 0 0 0 0 0
07-01-2020 7.3 (17:20) -0.4 (00:00) 3.5 3.89 (04:00) 1.94 (04:00) 0 0 0 0 0
06-01-2020 5.9 (17:10) -0.6 (-00:0) 2.7 3.06 (06:50) 1.67 (01:50) 0 0 0 0 0
05-01-2020 9.9 (17:10) 0 (00:00) 4.9 3.06 (09:10) 1.94 (09:20) 0 0 0 0 0
04-01-2020 10.3 (16:40) 1.3 (00:00) 5.8 4.44 (14:00) 2.5 (13:30) 0 0 0 0 0
03-01-2020 10 (16:50) 4.9 (00:00) 7.5 1.94 (21:10) 1.11 (21:10) 1.2 0 0.8 0.4 0
02-01-2020 6.3 (16:30) -0.6 (-00:0) 2.9 3.33 (05:10) 1.94 (05:10) 0 0 0 0 0
01-01-2020 3.3 (16:40) 0.5 (00:00) 1.9 3.61 (04:50) 2.22 (07:20) 0 0 0 0 0
31-12-2019 -- (--) -- (--) -- -- (--) -- (--) -- 0 0 0 --
30-12-2019 -- (--) -- (--) -- -- (--) -- (--) -- 0 0 0 --
29-12-2019 14.6 (17:10) -1.2 (-00:0) 6.7 1.67 (12:50) 1.11 (13:50) 0 0 0 0 0
28-12-2019 11.8 (16:30) 0.2 (00:00) 6 2.78 (09:00) 1.67 (07:00) 0 0 0 0 0
27-12-2019 11.8 (17:00) 1.1 (00:00) 6.5 2.78 (14:00) 1.67 (04:00) 0 0 0 0 0

Gráficas

Temp. máximas Temp. mínimas Temp. medias Precipitaciones Rachas de viento máximas Velocidades máximas media en intervalos de 10 minutos

Datos horarios

Fecha y hora oficial Temperatura (ºC) Velocidad del viento (km/h) Dirección del viento Racha (km/h) Dirección de racha Precipitación (mm) Presión (hPa) Tendencia (hPa) Humedad (%)
2020-01-25 23:00:00 6.3 2 Oeste 4 Sudoeste 0 1001.4 1.9 88
2020-01-25 22:00:00 6.6 0 Calma 4 Sudoeste 0 1001.1 2.4 86
2020-01-25 21:00:00 6.8 3 Oeste 6 Oeste 0 1000.3 2.3 83
2020-01-25 20:00:00 8.2 0 Calma 5 Este 0 999.5 1.8 77
2020-01-25 19:00:00 10.6 4 Sudeste 7 Este 0 998.7 1.1 70
2020-01-25 18:00:00 13.9 2 Sur 5 Norte 0 998 -0.1 59
2020-01-25 17:00:00 14.9 4 Oeste 6 Oeste 0 997.7 -1.3 51
2020-01-25 16:00:00 12.6 2 Sudoeste 7 Sudoeste 0 997.6 -2.4 63
2020-01-25 15:00:00 11.7 4 Sudoeste 6 Sur 0 998.1 -2.5 67
2020-01-25 14:00:00 8.1 4 Sur 8 Sudoeste 0 999 -1.4 81
2020-01-25 13:00:00 4.9 3 Sur 6 Oeste 0 1000 -0.2 94
2020-01-25 12:00:00 4 3 Oeste 6 Sudoeste 0 1000.6 0.7 96
2020-01-25 11:00:00 3.3 0 Calma 5 Sur 0 1000.4 0.9 97
2020-01-25 10:00:00 2.4 2 Sudoeste 4 Oeste 0 1000.2 0.9 98
2020-01-25 09:00:00 1.6 0 Calma 3 Sudeste 0 999.9 0.7 97
2020-01-25 08:00:00 1.4 2 Sudeste 6 Sudoeste 0 999.5 0.2 97
2020-01-25 07:00:00 1.3 0 Calma 4 Oeste 0 999.3 -0.1 96
2020-01-25 06:00:00 1.1 2 Sudoeste 5 Oeste 0 999.2 -0.5 96
2020-01-25 05:00:00 1.1 0 Calma 4 Oeste 0 999.3 -0.7 94
2020-01-25 04:00:00 1.5 0 Calma 3 Oeste 0 999.4 -0.8 96
2020-01-25 03:00:00 1.5 4 Oeste 5 Oeste 0 999.7 -0.5 94
2020-01-25 02:00:00 2.4 0 Calma 5 Oeste 0 1000 -0.4 93
2020-01-25 01:00:00 3.3 2 Oeste 6 Oeste 0 1000.2 0 93
2020-01-25 00:00:00 4.5 0 Calma 4 Oeste 0 1000.2 -0.1 91
2020-01-24 23:00:00 5.8 0 Calma 5 Oeste 0 1000.4 0.1 89
2020-01-24 22:00:00 7.3 2 Este 8 Oeste 0 1000.2 0.2 87
2020-01-24 21:00:00 7.8 0 Calma 6 Este 0 1000.3 0.5 86
2020-01-24 20:00:00 8.6 0 Calma 5 Este 0 1000.3 0.6 80
2020-01-24 19:00:00 10.7 3 Este 6 Sudeste 0 1000 0.4 75
2020-01-24 18:00:00 12.3 4 Sudeste 10 Este 0 999.8 -0.1 67
2020-01-24 17:00:00 13.1 5 Sudeste 14 Sudeste 0 999.7 -0.9 60
2020-01-24 16:00:00 13.6 3 Sur 8 Sudeste 0 999.6 -2.1 59
2020-01-24 15:00:00 13.3 4 Norte 13 Norte 0 999.9 -2.5 62
2020-01-24 14:00:00 12.9 5 Oeste 10 Oeste 0 1000.6 -1.8 63
2020-01-24 13:00:00 10.6 4 Sudoeste 8 Sudoeste 0 1001.7 -0.4 72
2020-01-24 12:00:00 7.5 3 Sudoeste 8 Sur 0 1002.4 0.8 81
2020-01-24 11:00:00 4.7 2 Oeste 5 Sudeste 0 1002.4 1.3 95
2020-01-24 10:00:00 2.8 3 Este 8 Sudeste 0 1002.1 1.6 100
2020-01-24 09:00:00 1.5 0 Calma 6 Oeste 0 1001.6 1.2 96
2020-01-24 08:00:00 2.2 0 Calma 5 Este 0 1001.1 1 96
2020-01-24 07:00:00 2.6 2 Sudoeste 5 Este 0 1000.5 0.1 94
2020-01-24 06:00:00 3.3 2 Este 5 Este 0 1000.4 -0.3 95
2020-01-24 05:00:00 4.2 3 Sudoeste 7 Oeste 0 1000.1 -0.6 93
2020-01-24 04:00:00 4.8 4 Este 9 Este 0 1000.4 -0.2 92
2020-01-24 03:00:00 5.2 4 Este 8 Oeste 0 1000.7 0.4 90
2020-01-24 02:00:00 5.4 4 Nordeste 6 Nordeste 0 1000.7 0.7 90
2020-01-24 01:00:00 5.1 3 Sudoeste 4 Sudoeste 0 1000.6 0.8 91
2020-01-24 00:00:00 4.6 2 Este 5 Oeste 0 1000.3 0.9 92
2020-01-23 23:00:00 4.4 0 Calma 4 Oeste 0 1000 1.3 89
2020-01-23 22:00:00 4.9 0 Calma 5 Sudoeste 0 999.8 2 88
2020-01-23 21:00:00 6 2 Oeste 5 Sudeste 0 999.4 1.7 84
2020-01-23 20:00:00 7.5 0 Calma 6 Oeste 0 998.7 1.3 80
2020-01-23 19:00:00 9.8 4 Oeste 6 Oeste 0 997.8 0.2 73
2020-01-23 18:00:00 12.4 0 Calma 8 Oeste 0 997.7 -0.8 59
2020-01-23 17:00:00 13.2 3 Este 6 Nordeste 0 997.4 -2 53
2020-01-23 16:00:00 12.1 4 Oeste 9 Oeste 0 997.6 -2.6 60
2020-01-23 15:00:00 9.3 4 Sudoeste 8 Oeste 0 998.5 -2.1 72
2020-01-23 14:00:00 7.7 4 Sudoeste 8 Oeste 0 999.4 -1 78
2020-01-23 13:00:00 6 3 Oeste 6 Oeste 0 1000.2 -0.2 83
2020-01-23 12:00:00 4.5 3 Sur 6 Nordeste 0 1000.6 0.8 89
2020-01-23 11:00:00 3.7 3 Sudeste 6 Sudeste 0 1000.4 1.2 86
2020-01-23 10:00:00 1.1 3 Sudoeste 5 Sur 0 1000.4 1.2 95
2020-01-23 09:00:00 0.6 3 Sudoeste 4 Sudoeste 0 999.8 0.7 94
2020-01-23 08:00:00 0.8 2 Sudoeste 5 Sudoeste 0 999.2 0 93
2020-01-23 07:00:00 1.3 0 Calma 5 Sudoeste 0 999.2 -0.3 93
2020-01-23 06:00:00 1.8 2 Sudeste 6 Sur 0 999.1 -0.3 92
2020-01-23 05:00:00 2.4 3 Sudoeste 6 Oeste 0 999.2 -0.4 92
2020-01-23 04:00:00 3.5 2 Sudoeste 4 Sudoeste 0 999.5 -0.3 90
2020-01-23 03:00:00 4.5 2 Sudeste 5 Sudeste 0 999.4 -0.3 88
2020-01-23 02:00:00 6 3 Este 5 Sudeste 0 999.6 -0.1 85
2020-01-23 01:00:00 7.1 3 Sudeste 6 Oeste 0 999.8 0 81
2020-01-23 00:00:00 8.5 2 Este 6 Norte 0 999.7 -0.2 77
2020-01-22 23:00:00 9.8 0 Calma 8 Norte 0 999.7 0.1 69
2020-01-22 22:00:00 10.7 4 Norte 13 Norte 0 999.8 0.4 65
2020-01-22 21:00:00 10.6 2 Sur 14 Este 0 999.9 1 67
2020-01-22 20:00:00 11.5 6 Norte 14 Noroeste 0 999.6 0.6 62
2020-01-22 19:00:00 12.5 7 Norte 16 Norte 0 999.4 0.2 59
2020-01-22 18:00:00 14.5 6 Nordeste 17 Nordeste 0 998.9 -0.7 52
2020-01-22 17:00:00 15.6 7 Nordeste 24 Norte 0 999 -1.8 49
2020-01-22 16:00:00 16.1 12 Nordeste 32 Nordeste 0 999.2 -2.6 40
2020-01-22 15:00:00 14.9 14 Nordeste 35 Nordeste 0 999.6 -2.9 50
2020-01-22 14:00:00 14.8 13 Nordeste 32 Este 0 1000.8 -2.3 51
2020-01-22 13:00:00 13.4 9 Noroeste 18 Nordeste 0 1001.8 -1.1 55
2020-01-22 12:00:00 9 4 Oeste 8 Oeste 0 1002.5 0.1 79
2020-01-22 11:00:00 6.9 2 Oeste 8 Sudoeste 0 1003.1 0.4 81
2020-01-22 10:00:00 5.1 2 Sudoeste 8 Sur 0 1002.9 0.3 84
2020-01-22 09:00:00 5.1 4 Nordeste 8 Nordeste 0 1002.4 -0.3 84
2020-01-22 08:00:00 5.2 4 Este 7 Nordeste 0 1002.7 0 83
2020-01-22 07:00:00 5.9 4 Nordeste 10 Sudeste 0 1002.6 -0.5 77
2020-01-22 06:00:00 5.8 4 Sudeste 9 Este 0 1002.7 -0.5 75
2020-01-22 05:00:00 6.8 3 Este 14 Noroeste 0 1002.7 -0.4 69
2020-01-22 04:00:00 5.8 3 Sudeste 14 Este 0 1003.1 0 73
2020-01-22 03:00:00 6.4 3 Este 12 Norte 0 1003.2 -0.1 70
2020-01-22 02:00:00 8 5 Noroeste 28 Noroeste 0 1003.1 -0.2 62
2020-01-22 01:00:00 8 7 Norte 16 Nordeste 0 1003.1 -0.1 62
2020-01-22 00:00:00 8.2 5 Norte 14 Norte 0 1003.3 -0.2 62
2020-01-21 23:00:00 8.6 8 Norte 19 Norte 0 1003.3 -0.1 60
2020-01-21 22:00:00 8.7 5 Oeste 19 Noroeste 0 1003.2 -0.3 61
2020-01-21 21:00:00 9.5 6 Norte 14 Noroeste 0 1003.5 0.7 57
2020-01-21 20:00:00 10 6 Norte 20 Nordeste 0 1003.4 0.8 56
2020-01-21 19:00:00 10.7 8 Nordeste 27 Este 0 1003.5 0.4 53
2020-01-21 18:00:00 11.6 9 Nordeste 31 Este 0 1002.8 -0.8 50
2020-01-21 17:00:00 13.2 12 Nordeste 24 Nordeste 0 1002.6 -2.5 45
2020-01-21 16:00:00 12.7 4 Nordeste 31 Nordeste 0 1003.1 -3.1 47
2020-01-21 15:00:00 13.2 9 Nordeste 28 Nordeste 0 1003.6 -4.2 45
2020-01-21 14:00:00 12.5 6 Nordeste 19 Nordeste 0 1005.1 -3.2 47
2020-01-21 13:00:00 10.3 3 Sudoeste 18 Nordeste 0 1006.2 -2.6 58
2020-01-21 12:00:00 8.2 4 Sudeste 12 Sur 0 1007.8 -1 66
2020-01-21 11:00:00 4.1 2 Sur 8 Sur 0 1008.3 -1.1 80
2020-01-21 10:00:00 0.6 3 Sur 12 Noroeste 0 1008.8 -0.7 90
2020-01-21 09:00:00 -0.3 3 Sudeste 14 Este 0 1008.8 -0.8 91
2020-01-21 08:00:00 -0.7 2 Sur 6 Este 0 1009.4 -0.6 91
2020-01-21 07:00:00 0.2 0 Calma 7 Oeste 0 1009.5 -1 87
2020-01-21 06:00:00 0.9 5 Oeste 9 Noroeste 0 1009.6 -0.7 83
2020-01-21 05:00:00 2.4 3 Este 11 Oeste 0 1010 -0.5 76
2020-01-21 04:00:00 3.9 5 Noroeste 11 Oeste 0 1010.5 -0.6 70
2020-01-21 03:00:00 4.5 6 Oeste 16 Nordeste 0 1010.3 -0.7 65
2020-01-21 02:00:00 5.3 6 Norte 16 Nordeste 0 1010.5 -0.4 60
2020-01-21 01:00:00 5.6 7 Norte 19 Norte 0 1011.1 0.5 59
2020-01-21 00:00:00 6.1 5 Norte 16 Oeste 0 1011 0.7 56
2020-01-20 23:00:00 6.3 3 Sudoeste 17 Nordeste 0 1010.9 0.8 54
2020-01-20 22:00:00 6.9 8 Norte 21 Este 0 1010.6 1.1 49
2020-01-20 21:00:00 7.3 9 Nordeste 26 Nordeste 0 1010.3 1.4 49
2020-01-20 20:00:00 7.9 7 Nordeste 19 Nordeste 0 1010.1 1.5 47
2020-01-20 19:00:00 8.7 9 Nordeste 28 Nordeste 0 1009.5 1 45
2020-01-20 18:00:00 10.4 8 Norte 22 Nordeste 0 1008.9 -0.1 41
2020-01-20 17:00:00 11.3 8 Norte 28 Norte 0 1008.6 -1.4 38
2020-01-20 16:00:00 12.4 8 Nordeste 29 Nordeste 0 1008.5 -2.9 33
2020-01-20 15:00:00 12.1 9 Nordeste 33 Nordeste 0 1009 -3.6 31
2020-01-20 14:00:00 11.8 8 Nordeste 25 Nordeste 0 1010 -2.9 38
2020-01-20 13:00:00 10.8 8 Norte 21 Norte 0 1011.4 -1.7 40
2020-01-20 12:00:00 9.4 7 Norte 16 Norte 0 1012.6 -0.4 44
2020-01-20 11:00:00 7.2 8 Nordeste 20 Noroeste 0 1012.9 0 53
2020-01-20 10:00:00 2.2 3 Sudeste 7 Sudeste 0 1013.1 0.7 82
2020-01-20 09:00:00 2.6 3 Sudeste 8 Sur 0 1013 0.1 78
2020-01-20 08:00:00 2.8 4 Este 10 Sudeste 0 1012.9 -0.4 77
2020-01-20 07:00:00 1.3 4 Oeste 8 Este 0 1012.4 -1.6 82
2020-01-20 06:00:00 0.9 3 Este 8 Este 0 1012.9 -1.7 84
2020-01-20 05:00:00 1.2 2 Sudoeste 6 Oeste 0 1013.3 -1.9 83
2020-01-20 04:00:00 1.2 3 Noroeste 8 Este 0 1014 -1.6 82
2020-01-20 03:00:00 2.5 3 Sudoeste 6 Oeste 0 1014.6 -1.2 75
2020-01-20 02:00:00 5.4 3 Norte 16 Norte 0 1015.2 -0.4 61
2020-01-20 01:00:00 3 0 Calma 9 Nordeste 0 1015.6 0.5 74
2020-01-20 00:00:00 4 0 Calma 10 Sudeste 0 1015.8 0.7 66
2020-01-19 23:00:00 6.1 3 Sudoeste 16 Noroeste 0 1015.6 1.1 55
2020-01-19 22:00:00 7.3 6 Nordeste 17 Este 0 1015.1 1.1 49
2020-01-19 21:00:00 8.1 7 Nordeste 19 Nordeste 0 1015.1 1.5 45
2020-01-19 20:00:00 8.7 4 Nordeste 14 Noroeste 0 1014.5 1.5 51
2020-01-19 19:00:00 10.1 6 Norte 19 Noroeste 0 1014 1.5 48
2020-01-19 18:00:00 11.8 9 Norte 22 Noroeste 0 1013.6 0.9 41
2020-01-19 17:00:00 13.2 10 Norte 24 Nordeste 0 1013 -0.1 39
2020-01-19 16:00:00 13.6 10 Nordeste 24 Norte 0 1012.5 -1.1 39
2020-01-19 15:00:00 13.4 12 Nordeste 27 Este 0 1012.7 -1.3 42
2020-01-19 14:00:00 13.3 9 Norte 22 Norte 0 1013.1 -0.6 45
2020-01-19 13:00:00 12.6 9 Nordeste 21 Nordeste 0 1013.6 1.3 48
2020-01-19 12:00:00 11.7 5 Norte 15 Nordeste 0 1014 2.9 54
2020-01-19 11:00:00 10.2 4 Sudeste 23 Noroeste 0 1013.7 4.1 60
2020-01-19 10:00:00 8.8 4 Noroeste 20 Oeste 0 1012.3 3.8 66
2020-01-19 09:00:00 9.3 6 Noroeste 20 Noroeste 0 1011.1 3.1 70
2020-01-19 08:00:00 9.2 4 Oeste 16 Oeste 0 1009.6 2 75
2020-01-19 07:00:00 9.9 7 Norte 21 Oeste 0 1008.5 1.1 75
2020-01-19 06:00:00 9.2 4 Noroeste 13 Oeste 0 1008 0.8 87
2020-01-19 05:00:00 8.2 5 Oeste 12 Oeste 0 1007.6 0.5 98
2020-01-19 04:00:00 8 0 Calma 4 Sudeste 0 1007.4 0.7 97
2020-01-19 03:00:00 8.3 0 Calma 7 Este 0 1007.2 1.2 97
2020-01-19 02:00:00 8.4 3 Este 5 Sudeste 0 1007.1 2.1 98
2020-01-19 01:00:00 8.5 2 Sudeste 6 Sudoeste 0 1006.7 2.3 97
2020-01-19 00:00:00 8.8 2 Noroeste 5 Sudeste 0 1006 1.7 97
2020-01-18 23:00:00 9.1 2 Sur 5 Oeste 0.8 1005 1.2 97
2020-01-18 22:00:00 9.2 0 Calma 6 Nordeste 0.8 1004.4 0.6 96
2020-01-18 21:00:00 9.4 3 Oeste 5 Sur 0.2 1004.3 0.6 94
2020-01-18 20:00:00 9.5 3 Sudeste 9 Sur 1.4 1003.8 0.6 92
2020-01-18 19:00:00 10.2 0 Calma 12 Sudoeste 2.2 1003.8 0.9 88
2020-01-18 18:00:00 11.2 6 Oeste 24 Sudoeste 0.6 1003.7 1.5 78
2020-01-18 17:00:00 12.3 14 Sudoeste 32 Oeste 0.2 1003.2 1.4 68
2020-01-18 16:00:00 12.3 12 Oeste 40 Oeste 1.4 1002.9 0.5 80
2020-01-18 15:00:00 15.7 16 Oeste 40 Oeste 0 1002.2 -1 63
2020-01-18 14:00:00 15.5 15 Sudoeste 38 Oeste 0 1001.8 -1.8 76
2020-01-18 13:00:00 16.5 15 Sudoeste 35 Oeste 0 1002.4 -1.5 75
2020-01-18 12:00:00 14.3 9 Sudeste 23 Sur 0 1003.2 -1.6 71
2020-01-18 11:00:00 12.9 8 Sudeste 24 Sur 0 1003.6 -1 73
2020-01-18 10:00:00 11.4 7 Sur 23 Sudeste 0 1003.9 -1.3 75
2020-01-18 09:00:00 10.7 8 Sur 23 Sur 0 1004.8 -0.6 76
2020-01-18 08:00:00 10.6 12 Sur 32 Sudeste 0 1004.6 -1.7 76
2020-01-18 07:00:00 10.2 6 Sur 14 Este 0 1005.2 -1.8 77
2020-01-18 06:00:00 9.7 7 Sudoeste 20 Sudeste 0.2 1005.4 -3.1 78
2020-01-18 05:00:00 10.4 8 Sur 29 Sur 0 1006.3 -2.9 69
2020-01-18 04:00:00 10.1 7 Sur 18 Sur 0 1007 -3.7 67
2020-01-18 03:00:00 9.1 6 Sudeste 13 Sudeste 0 1008.5 -2.7 73
2020-01-18 02:00:00 6.9 4 Sudeste 9 Sudeste 0 1009.2 -2.6 96
2020-01-18 01:00:00 7 0 Calma 4 Sudeste 0 1010.7 -1.2 95
2020-01-18 00:00:00 7.2 2 Sudoeste 5 Sudoeste 0 1011.2 -1 92
2020-01-17 23:00:00 7.6 2 Sudeste 5 Sudeste 0 1011.8 -0.8 91
2020-01-17 22:00:00 8 3 Sudoeste 6 Sudoeste 0 1011.9 -1.2 91
2020-01-17 21:00:00 8.5 0 Calma 7 Oeste 0 1012.2 -0.3 89
2020-01-17 20:00:00 9 3 Sudoeste 5 Oeste 0 1012.6 -0.1 88
2020-01-17 19:00:00 9.7 2 Este 5 Este 0 1013.1 0.6 84
2020-01-17 18:00:00 10.6 3 Este 6 Nordeste 0 1012.5 -0.5 82
2020-01-17 17:00:00 11.4 2 Nordeste 9 Nordeste 0 1012.7 -0.4 71
2020-01-17 16:00:00 11.6 3 Nordeste 8 Nordeste 0 1012.5 -1 68
2020-01-17 15:00:00 11.4 3 Norte 8 Noroeste 0 1013 -0.6 70
2020-01-17 14:00:00 11.4 3 Nordeste 8 Nordeste 0 1013.1 0.2 71
2020-01-17 13:00:00 10.7 3 Oeste 8 Oeste 0 1013.5 1.2 87
2020-01-17 12:00:00 10 2 Sudeste 7 Oeste 0 1013.6 2.3 89
2020-01-17 11:00:00 8.4 2 Sur 4 Sur 0 1012.9 2.4 94
2020-01-17 10:00:00 6.2 2 Oeste 7 Noroeste 0 1012.3 2.9 98
2020-01-17 09:00:00 6.7 4 Sudeste 8 Sudeste 0 1011.3 3 94
2020-01-17 08:00:00 7 4 Sudeste 8 Oeste 0.4 1010.5 3.2 98
2020-01-17 07:00:00 6.3 2 Noroeste 10 Norte 0.2 1009.4 2.4 99
2020-01-17 06:00:00 6.2 0 Calma 6 Sudoeste 0 1008.3 1.9 96
2020-01-17 05:00:00 6.6 3 Oeste 10 Sudeste 0 1007.3 1.3 94
2020-01-17 04:00:00 7.7 4 Sudeste 10 Sudeste 0 1007 2.2 92
2020-01-17 03:00:00 8.9 3 Este 12 Sudoeste 0 1006.4 2.2 89
2020-01-17 02:00:00 9.3 4 Sur 12 Sudeste 0.8 1006 2.2 95
2020-01-17 01:00:00 9.7 5 Sudeste 15 Sudeste 0.2 1004.8 1.5 90
2020-01-17 00:00:00 10 7 Sudeste 12 Sudeste 0 1004.2 1.1 88
2020-01-16 23:00:00 10.2 8 Sudeste 17 Sudeste 0.2 1003.8 2.2 89
2020-01-16 22:00:00 10.5 8 Sudeste 14 Sudeste 0.8 1003.3 2.6 91
2020-01-16 21:00:00 10.8 6 Oeste 21 Oeste 2.2 1003.1 6.5 93
2020-01-16 20:00:00 10.6 5 Sudeste 10 Sur 1.2 1001.6 3.4 92
2020-01-16 19:00:00 11.1 4 Sudeste 51 Sudoeste 4.8 1000.7 2.4 88
2020-01-16 18:00:00 13.8 13 Sudeste 31 Sudeste 0 996.6 -2.1 65
2020-01-16 17:00:00 14 17 Sur 34 Sur 0 998.2 -1.5 62
2020-01-16 16:00:00 14.4 10 Sur 45 Sur 0 998.3 -2 58
2020-01-16 15:00:00 15.3 17 Sudeste 44 Sudeste 0 998.7 -1.8 53
2020-01-16 14:00:00 15.4 12 Sur 36 Sudoeste 0 999.7 -0.7 62
2020-01-16 13:00:00 15.2 12 Sudeste 32 Sur 0 1000.3 0 68
2020-01-16 12:00:00 15.3 9 Sur 27 Sudeste 0 1000.5 0.7 71
2020-01-16 11:00:00 14.8 11 Sudeste 33 Sudeste 0 1000.4 0.6 75
2020-01-16 10:00:00 15.6 11 Sudeste 31 Sudoeste 0 1000.3 0.3 66
2020-01-16 09:00:00 15.2 12 Sur 26 Sur 0 999.8 -0.6 67
2020-01-16 08:00:00 14.3 5 Sur 19 Sur 0 999.8 -0.7 75
2020-01-16 07:00:00 14.5 10 Sur 28 Sur 0 1000 -0.6 77
2020-01-16 06:00:00 13.8 8 Sur 20 Sudeste 0 1000.4 0 85
2020-01-16 05:00:00 13.5 9 Sudeste 21 Sudeste 1.2 1000.5 -0.3 88
2020-01-16 04:00:00 14.2 8 Sudeste 22 Sur 0.2 1000.6 -0.9 83
2020-01-16 03:00:00 14.8 12 Sudeste 24 Sudeste 0 1000.4 -1.3 75
2020-01-16 02:00:00 14.8 5 Sudeste 17 Sudeste 0 1000.8 -0.8 67
2020-01-16 01:00:00 15.2 5 Sudeste 15 Sudeste 0 1001.5 0.4 63
2020-01-16 00:00:00 14.9 6 Este 17 Sur 0 1001.7 0.1 72
2020-01-15 23:00:00 14.8 5 Sudeste 21 Sudeste 0 1001.6 0.1 75
2020-01-15 22:00:00 14.1 4 Sudeste 21 Sur 0 1001.1 -0.4 77
2020-01-15 21:00:00 10.9 2 Sur 8 Sudeste 0 1001.6 0.3 87
2020-01-15 20:00:00 10.9 0 Calma 8 Oeste 0 1001.5 0.4 81
2020-01-15 19:00:00 13.3 0 Calma 9 Sudeste 0 1001.5 0.7 71
2020-01-15 18:00:00 15.9 4 Sudeste 16 Sudoeste 0 1001.3 1 59
2020-01-15 17:00:00 17.3 5 Sudoeste 16 Oeste 0 1001.1 0.3 61
2020-01-15 16:00:00 16.1 8 Oeste 19 Oeste 0 1000.8 -0.3 70
2020-01-15 15:00:00 15 3 Norte 10 Norte 0 1000.3 -1.2 77
2020-01-15 14:00:00 13.8 4 Norte 9 Oeste 0 1000.8 0.1 81
2020-01-15 13:00:00 13.5 3 Oeste 7 Sudeste 0 1001.1 1.4 84
2020-01-15 12:00:00 12.3 3 Sudeste 10 Sudeste 0 1001.5 3.1 89
2020-01-15 11:00:00 10.7 3 Sudeste 7 Sudeste 0 1000.7 4 97
2020-01-15 10:00:00 10.2 3 Oeste 10 Sur 0 999.7 4.3 96
2020-01-15 09:00:00 10.3 3 Este 12 Oeste 0.4 998.4 4.3 94
2020-01-15 08:00:00 10.6 8 Sudeste 21 Sur 3.8 996.7 2.7 89
2020-01-15 07:00:00 11.5 12 Sur 36 Sudoeste 7.6 995.4 1.7 90
2020-01-15 06:00:00 12.2 4 Sur 15 Oeste 7.6 994.1 0.2 92
2020-01-15 05:00:00 13.9 12 Sur 46 Sudoeste 1.2 994 -0.6 79
2020-01-15 04:00:00 15 20 Sur 43 Sur 0 993.7 -1 66
2020-01-15 03:00:00 14.4 14 Sudeste 30 Sur 0 993.9 -1.2 69
2020-01-15 02:00:00 12.8 10 Sudeste 27 Sudeste 0.4 994.6 -0.6 82
2020-01-15 01:00:00 12.3 15 Sudeste 32 Sudeste 0 994.7 -0.8 78
2020-01-15 00:00:00 12.9 10 Sudeste 32 Sudeste 0 995.1 -0.8 75
2020-01-14 23:00:00 13.1 12 Sudeste 36 Sur 0 995.2 -1.2 71
2020-01-14 22:00:00 13.3 9 Sur 30 Sudoeste 0 995.5 -1 70
2020-01-14 21:00:00 13.5 13 Sudeste 30 Sudeste 0 995.9 -0.3 64
2020-01-14 20:00:00 13.2 7 Sudeste 30 Sur 0 996.4 -0.2 65
2020-01-14 19:00:00 13.5 8 Sur 19 Sur 0 996.5 -0.2 63
2020-01-14 18:00:00 13.9 6 Sudeste 32 Sur 0 996.2 -0.3 62
2020-01-14 17:00:00 14.5 12 Sur 36 Sudeste 0 996.6 -0.8 61
2020-01-14 16:00:00 14.3 14 Sur 41 Sur 0 996.7 -1.5 64
2020-01-14 15:00:00 15.6 18 Sur 40 Sudeste 0 996.5 -2.6 60
2020-01-14 14:00:00 14.9 13 Sudeste 31 Sudeste 0 997.4 -1.7 60
2020-01-14 13:00:00 14.3 7 Sudeste 26 Sudeste 0 998.2 -0.8 61
2020-01-14 12:00:00 13 11 Sur 27 Sur 0 999.1 0.3 63
2020-01-14 11:00:00 11.6 9 Sudeste 23 Este 0 999.1 0.1 68
2020-01-14 10:00:00 11.7 12 Sudeste 32 Sudeste 0 999 0.2 66
2020-01-14 09:00:00 11.6 12 Sudeste 26 Sudeste 0 998.8 -0.1 67
2020-01-14 08:00:00 10.9 10 Sur 28 Sur 0 999 -0.3 70
2020-01-14 07:00:00 10.5 10 Sudeste 28 Sudeste 0 998.8 -1 71
2020-01-14 06:00:00 10.3 15 Sudeste 32 Sudeste 0 998.9 -1 71
2020-01-14 05:00:00 10.3 13 Sudeste 34 Sudeste 0 999.3 -1 73
2020-01-14 04:00:00 10.6 12 Sudeste 29 Este 0 999.8 -1.1 71
2020-01-14 03:00:00 10.8 13 Sudeste 32 Sudeste 0 999.9 -1 71
2020-01-14 02:00:00 10.9 8 Sudeste 24 Este 0 1000.3 -0.8 71
2020-01-14 01:00:00 11.1 13 Sudeste 32 Sudeste 0 1000.9 -0.3 70
2020-01-14 00:00:00 10.7 13 Sudeste 31 Sudeste 0 1000.9 -0.7 71
2020-01-13 23:00:00 11.7 12 Sudeste 29 Sudeste 0 1001.1 -0.7 69
2020-01-13 22:00:00 11.5 9 Sur 22 Sudeste 0 1001.2 -0.9 70
2020-01-13 21:00:00 11.3 11 Sudeste 27 Sur 0 1001.6 -0.2 69
2020-01-13 20:00:00 11.4 15 Sudeste 35 Sudeste 0 1001.8 0.1 68
2020-01-13 19:00:00 11.1 12 Sur 23 Sudeste 0 1002.1 0.5 67
2020-01-13 18:00:00 11.5 8 Sur 19 Sur 0 1001.8 -0.5 63
2020-01-13 17:00:00 13.6 14 Sur 28 Sur 0 1001.7 -1.8 55
2020-01-13 16:00:00 14 8 Sur 28 Sudeste 0 1001.6 -3.5 51
2020-01-13 15:00:00 13.4 4 Norte 11 Norte 0 1002.3 -4.2 55
2020-01-13 14:00:00 11 5 Este 9 Oeste 0 1003.5 -4 60
2020-01-13 13:00:00 7.1 4 Sudoeste 8 Sudoeste 0 1005.1 -2.6 82
2020-01-13 12:00:00 3.5 4 Oeste 8 Sudoeste 0 1006.5 -0.3 94
2020-01-13 11:00:00 0.8 3 Este 7 Sudeste 0 1007.5 0.9 100
2020-01-13 10:00:00 0.7 4 Sudeste 6 Sudeste 0 1007.7 1 100
2020-01-13 09:00:00 0.3 3 Sur 6 Sur 0 1006.8 -0.7 100
2020-01-13 08:00:00 0.2 0 Calma 5 Sur 0 1006.6 -1.6 100
2020-01-13 07:00:00 0.2 4 Sudeste 6 Sudeste 0 1006.7 -2 100
2020-01-13 06:00:00 0.4 4 Sudeste 7 Sur 0 1007.5 -1.7 100
2020-01-13 05:00:00 0.6 4 Sur 6 Sur 0 1008.2 -1.9 100
2020-01-13 04:00:00 0.9 3 Sur 5 Sur 0 1008.7 -2.2 100
2020-01-13 03:00:00 0.7 0 Calma 5 Sudeste 0 1009.2 -2.4 100
2020-01-13 02:00:00 0 2 Sudoeste 5 Oeste 0 1010.1 -1.6 97
2020-01-13 01:00:00 0.4 2 Este 5 Oeste 0 1010.9 -1 98
2020-01-13 00:00:00 0.8 2 Sudoeste 3 Oeste 0 1011.6 -0.1 96
2020-01-12 23:00:00 1.3 0 Calma 2 Sudoeste 0 1011.7 -0.5 97
2020-01-12 22:00:00 1.8 0 Calma 3 Sudoeste 0 1011.9 0.3 95
2020-01-12 21:00:00 2.6 0 Calma 5 Oeste 0 1011.7 0 93
2020-01-12 20:00:00 3.6 0 Calma 5 Sudoeste 0 1012.2 0.4 91
2020-01-12 19:00:00 5.3 0 Calma 5 Este 0 1011.6 -0.6 85
2020-01-12 18:00:00 7.6 3 Sudoeste 5 Sur 0 1011.7 -1.3 74
2020-01-12 17:00:00 7.9 3 Sudoeste 5 Sur 0 1011.8 -2.2 78
2020-01-12 16:00:00 5.3 3 Nordeste 6 Sudoeste 0 1012.2 -2.9 93
2020-01-12 15:00:00 2.8 2 Sur 7 Sudoeste 0 1013 -3.1 96
2020-01-12 14:00:00 2 4 Sur 8 Sudoeste 0 1014 -2.1 98
2020-01-12 13:00:00 1.4 5 Sur 8 Sur 0 1015.1 -0.9 99
2020-01-12 12:00:00 0.8 3 Este 7 Sur 0 1016.1 0.6 100
2020-01-12 11:00:00 -0.2 3 Sudeste 10 Sur 0 1016.1 1 100
2020-01-12 10:00:00 -0.4 6 Sudeste 12 Sur 0 1016 1.3 100
2020-01-12 09:00:00 0 5 Sudeste 10 Sur 0 1015.5 0.9 100
2020-01-12 08:00:00 0 4 Sudeste 9 Sur 0 1015.1 0.5 100
2020-01-12 07:00:00 0.5 5 Sur 9 Sur 0 1014.7 0 100
2020-01-12 06:00:00 0.7 4 Sur 8 Sudeste 0 1014.6 0.2 100
2020-01-12 05:00:00 1 4 Sur 8 Sudeste 0 1014.6 0.3 100
2020-01-12 04:00:00 1.3 3 Sudeste 6 Sudeste 0 1014.7 0 100
2020-01-12 03:00:00 1.4 3 Sur 5 Sudeste 0 1014.4 -0.3 100
2020-01-12 02:00:00 1 0 Calma 4 Sur 0 1014.3 -0.4 99
2020-01-12 01:00:00 0.4 0 Calma 3 Sudoeste 0 1014.7 0.3 97
2020-01-12 00:00:00 0.3 3 Oeste 5 Oeste 0 1014.7 0.5 95
2020-01-11 23:00:00 1.1 0 Calma 4 Oeste 0 1014.7 0.8 95
2020-01-11 22:00:00 2 0 Calma 3 Oeste 0 1014.4 0.9 94
2020-01-11 21:00:00 3 0 Calma 2 Oeste 0 1014.2 1.3 92
2020-01-11 20:00:00 4.1 0 Calma 3 Sudoeste 0 1013.9 1.1 90
2020-01-11 19:00:00 5.7 3 Este 4 Este 0 1013.5 0.6 86
2020-01-11 18:00:00 7.8 2 Sudoeste 5 Sudoeste 0 1012.9 -0.5 77
2020-01-11 17:00:00 8 3 Sur 5 Sudoeste 0 1012.8 -1.5 78
2020-01-11 16:00:00 6.7 3 Sur 8 Nordeste 0 1012.9 -2.5 85
2020-01-11 15:00:00 4 0 Calma 8 Sur 0 1013.4 -2.8 95
2020-01-11 14:00:00 2.7 3 Sur 7 Sur 0 1014.3 -2 98
2020-01-11 13:00:00 2.3 4 Sur 7 Sur 0 1015.4 -0.5 99
2020-01-11 12:00:00 1.9 4 Sur 8 Sudeste 0 1016.2 0.3 100
2020-01-11 11:00:00 1.1 3 Sudeste 8 Sur 0 1016.3 0.5 100
2020-01-11 10:00:00 0.7 4 Sur 10 Sudeste 0 1015.9 0.3 100
2020-01-11 09:00:00 0.6 5 Sudeste 8 Sudeste 0 1015.9 0.6 99
2020-01-11 08:00:00 0.6 4 Sudeste 9 Sudeste 0 1015.8 0.4 99
2020-01-11 07:00:00 1.1 4 Sudeste 7 Sudeste 0 1015.6 -0.1 100
2020-01-11 06:00:00 1.2 4 Sudeste 7 Sudeste 0 1015.3 -0.3 100
2020-01-11 05:00:00 1 0 Calma 3 Sudoeste 0 1015.4 -0.4 98
2020-01-11 04:00:00 0.5 2 Sudoeste 5 Oeste 0 1015.7 -0.5 97
2020-01-11 03:00:00 0.4 0 Calma 4 Oeste 0 1015.6 -0.4 97
2020-01-11 02:00:00 0.5 2 Sudoeste 4 Oeste 0 1015.8 0 96
2020-01-11 01:00:00 1.1 0 Calma 3 Sudoeste 0 1016.2 0.8 95
2020-01-11 00:00:00 1.8 0 Calma 5 Oeste 0 1016 1.1 93
2020-01-10 23:00:00 2.7 0 Calma 6 Oeste 0 1015.8 1.3 92
2020-01-10 22:00:00 3.7 0 Calma 4 Oeste 0 1015.4 1.6 92
2020-01-10 21:00:00 4.7 2 Sudeste 5 Noroeste 0 1014.9 1.7 89
2020-01-10 20:00:00 6.3 0 Calma 5 Oeste 0 1014.5 1.3 83
2020-01-10 19:00:00 8.6 4 Este 7 Nordeste 0 1013.8 0.4 76
2020-01-10 18:00:00 11.8 3 Nordeste 14 Nordeste 0 1013.2 -0.8 60
2020-01-10 17:00:00 12.8 5 Nordeste 10 Oeste 0 1013.2 -1.5 60
2020-01-10 16:00:00 12 5 Oeste 10 Oeste 0 1013.4 -2.6 66
2020-01-10 15:00:00 10 5 Oeste 10 Norte 0 1014 -2.2 76
2020-01-10 14:00:00 7.4 4 Oeste 9 Oeste 0 1014.7 -1.2 89
2020-01-10 13:00:00 4.7 5 Sur 9 Sudeste 0 1016 0.6 99
2020-01-10 12:00:00 3.1 4 Oeste 8 Sudoeste 0 1016.2 1.6 100
2020-01-10 11:00:00 2.6 4 Sudeste 8 Sur 0 1015.9 1.3 100
2020-01-10 10:00:00 2.6 5 Sur 7 Sur 0 1015.4 1 100
2020-01-10 09:00:00 2.4 6 Sur 9 Sur 0 1014.6 1.2 100
2020-01-10 08:00:00 2.7 4 Sur 8 Sur 0 1014.6 1.6 100
2020-01-10 07:00:00 2.8 2 Sur 4 Sur 0 1014.4 1.4 100
2020-01-10 06:00:00 2.1 3 Sudoeste 4 Sudoeste 0 1013.4 0.7 99
2020-01-10 05:00:00 1.6 3 Oeste 5 Oeste 0 1013 0.4 97
2020-01-10 04:00:00 2.3 0 Calma 5 Sudeste 0 1013 0.3 97
2020-01-10 03:00:00 2.8 2 Sudoeste 5 Sudeste 0 1012.7 0 95
2020-01-10 02:00:00 3.6 0 Calma 7 Sudeste 0 1012.6 0 95
2020-01-10 01:00:00 4 3 Sudeste 7 Sudeste 0 1012.7 0.9 96
2020-01-10 00:00:00 4.1 2 Sudeste 5 Este 0 1012.7 1.3 95
2020-01-09 23:00:00 4.3 0 Calma 7 Oeste 0 1012.6 2.5 93
2020-01-09 22:00:00 5.5 2 Sudoeste 6 Sudoeste 0 1011.8 2.1 89
2020-01-09 21:00:00 6.9 0 Calma 8 Este 0 1011.4 2.5 83
2020-01-09 20:00:00 8.5 0 Calma 8 Sudeste 0 1010.1 1.9 80
2020-01-09 19:00:00 10 3 Sur 14 Sudoeste 0 1009.7 1.8 74
2020-01-09 18:00:00 12 7 Sudoeste 17 Oeste 0 1008.9 2.1 65
2020-01-09 17:00:00 13.1 10 Oeste 23 Oeste 0 1008.2 2.5 64
2020-01-09 16:00:00 13.2 6 Oeste 29 Oeste 0 1007.9 2.3 67
2020-01-09 15:00:00 13.9 15 Oeste 51 Oeste 0.2 1006.8 -0.1 74
2020-01-09 14:00:00 15.6 17 Sudoeste 41 Sudoeste 0 1005.7 -1.6 78
2020-01-09 13:00:00 15.1 5 Sur 14 Oeste 0 1005.6 -1.8 82
2020-01-09 12:00:00 11 4 Oeste 6 Oeste 0 1006.9 -0.6 91
2020-01-09 11:00:00 9.1 2 Este 6 Oeste 0 1007.3 -0.5 93
2020-01-09 10:00:00 8 2 Sudeste 5 Sudeste 0 1007.4 -0.6 96
2020-01-09 09:00:00 7.7 2 Sudoeste 6 Este 0 1007.5 -0.8 97
2020-01-09 08:00:00 7.6 3 Sudeste 5 Sur 0 1007.8 -0.8 96
2020-01-09 07:00:00 7.6 0 Calma 5 Noroeste 0 1008 -1.2 95
2020-01-09 06:00:00 7.6 0 Calma 3 Sur 0 1008.3 -1.1 96
2020-01-09 05:00:00 7.4 0 Calma 3 Sudeste 0 1008.6 -1.3 95
2020-01-09 04:00:00 7.3 2 Sudeste 5 Oeste 0 1009.2 -1 95
2020-01-09 03:00:00 7.2 0 Calma 5 Oeste 0 1009.4 -1.3 94
2020-01-09 02:00:00 7.5 0 Calma 4 Sudeste 0 1009.9 -0.8 92
2020-01-09 01:00:00 8.1 0 Calma 6 Noroeste 0 1010.2 -1 91
2020-01-09 00:00:00 8.2 0 Calma 4 Sudeste 0 1010.7 -0.6 91
2020-01-08 23:00:00 8.4 0 Calma 3 Oeste 0 1010.7 -0.5 89
2020-01-08 22:00:00 8.5 0 Calma 3 Sudeste 0 1011.2 0 90
2020-01-08 21:00:00 8.5 3 Oeste 4 Oeste 0 1011.3 0.3 86
2020-01-08 20:00:00 8.7 3 Oeste 5 Sudeste 0 1011.2 0.3 84
2020-01-08 19:00:00 8.9 0 Calma 4 Oeste 0 1011.2 0.1 83
2020-01-08 18:00:00 9.3 0 Calma 5 Este 0 1011 -0.6 79
2020-01-08 17:00:00 9.4 4 Oeste 7 Oeste 0 1010.9 -1.5 75
2020-01-08 16:00:00 9.1 2 Nordeste 8 Oeste 0 1011.1 -2.4 70
2020-01-08 15:00:00 8.4 2 Sudoeste 5 Oeste 0 1011.6 -2.8 74
2020-01-08 14:00:00 7.5 3 Sudoeste 7 Oeste 0 1012.4 -2.5 79
2020-01-08 13:00:00 6.1 3 Sudoeste 7 Sudoeste 0 1013.5 -1.3 82
2020-01-08 12:00:00 5.2 3 Sudoeste 6 Sudoeste 0 1014.4 -0.1 86
2020-01-08 11:00:00 2.4 2 Este 5 Sur 0 1014.9 0.5 97
2020-01-08 10:00:00 1.1 3 Sur 5 Sur 0 1014.8 0.5 100
2020-01-08 09:00:00 0.2 0 Calma 6 Este 0 1014.5 0 100
2020-01-08 08:00:00 0.3 4 Sudeste 6 Sudeste 0 1014.4 -0.4 100
2020-01-08 07:00:00 0.4 0 Calma 5 Sur 0 1014.3 -0.6 100
2020-01-08 06:00:00 0.5 3 Sur 6 Sur 0 1014.5 -0.4 100
2020-01-08 05:00:00 0.5 2 Sur 4 Sur 0 1014.8 -0.2 100
2020-01-08 04:00:00 0.1 0 Calma 4 Oeste 0 1014.9 -0.1 99
2020-01-08 03:00:00 -0.2 0 Calma 3 Sudoeste 0 1014.9 -0.4 99
2020-01-08 02:00:00 -0.3 2 Oeste 3 Oeste 0 1015 -0.3 98
2020-01-08 01:00:00 -0.1 0 Calma 5 Oeste 0 1015 -0.4 98
2020-01-08 00:00:00 0.3 0 Calma 4 Oeste 0 1015.3 0.3 98
2020-01-07 23:00:00 0.6 0 Calma 3 Oeste 0 1015.3 0.3 96
2020-01-07 22:00:00 1.2 0 Calma 5 Oeste 0 1015.4 0.8 95
2020-01-07 21:00:00 2 0 Calma 3 Sudeste 0 1015 0.8 94
2020-01-07 20:00:00 3.1 0 Calma 5 Oeste 0 1015 0.9 91
2020-01-07 19:00:00 4.6 2 Oeste 5 Oeste 0 1014.6 0.3 86
2020-01-07 18:00:00 6.7 2 Sudoeste 5 Oeste 0 1014.2 -0.6 75
2020-01-07 17:00:00 7 3 Sudoeste 7 Sur 0 1014.1 -1.7 75
2020-01-07 16:00:00 5.7 4 Sur 7 Sur 0 1014.3 -2.4 84
2020-01-07 15:00:00 2.9 3 Oeste 6 Sur 0 1014.8 -2.1 97
2020-01-07 14:00:00 1.9 3 Sudoeste 9 Sudoeste 0 1015.8 -0.9 97
2020-01-07 13:00:00 1.2 3 Sur 10 Sur 0 1016.7 0.1 100
2020-01-07 12:00:00 0.7 4 Sur 6 Sur 0 1016.9 0.8 100
2020-01-07 11:00:00 0.2 3 Sudoeste 8 Sur 0 1016.7 1 100
2020-01-07 10:00:00 -0.2 4 Sudeste 8 Sudeste 0 1016.6 1.1 100
2020-01-07 09:00:00 -0.3 5 Sudeste 9 Sudeste 0 1016.1 0.5 100
2020-01-07 08:00:00 0 3 Sur 10 Sudeste 0 1015.7 0.2 100
2020-01-07 07:00:00 0.4 5 Sur 9 Sur 0 1015.5 -0.1 100
2020-01-07 06:00:00 0.1 4 Sudeste 6 Sudeste 0 1015.6 0.4 100
2020-01-07 05:00:00 0.1 3 Sudeste 11 Sudeste 0 1015.5 0.5 100
2020-01-07 04:00:00 0.5 7 Sudeste 14 Sudeste 0 1015.6 0.3 100
2020-01-07 03:00:00 0.8 2 Sudeste 10 Sur 0 1015.2 0 100
2020-01-07 02:00:00 1.3 6 Sur 10 Sur 0 1015 0.2 100
2020-01-07 01:00:00 1.4 4 Sur 6 Sur 0 1015.3 0.5 100
2020-01-07 00:00:00 1.6 4 Sur 8 Sur 0 1015.2 0.6 100
2020-01-06 23:00:00 1.9 5 Sur 9 Sur 0 1014.8 0.6 100
2020-01-06 22:00:00 2.3 3 Sur 6 Sudeste 0 1014.8 0.9 100
2020-01-06 21:00:00 2.1 0 Calma 4 Oeste 0 1014.6 1.4 97
2020-01-06 20:00:00 2.1 2 Sudoeste 5 Oeste 0 1014.2 1.8 94
2020-01-06 19:00:00 3.4 0 Calma 4 Sudeste 0 1013.9 2 92
2020-01-06 18:00:00 5.1 2 Sudoeste 5 Sudoeste 0 1013.2 0.7 87
2020-01-06 17:00:00 5.7 3 Nordeste 9 Norte 0 1012.4 -1.2 85
2020-01-06 16:00:00 4.9 3 Sur 8 Sur 0 1011.9 -1.9 88
2020-01-06 15:00:00 3.2 4 Sudoeste 8 Sudoeste 0 1012.5 -1.7 93
2020-01-06 14:00:00 2.6 3 Sur 11 Oeste 0 1013.6 -0.2 94
2020-01-06 13:00:00 1.5 3 Sur 8 Sudoeste 0 1013.8 0.6 97
2020-01-06 12:00:00 0.7 5 Sur 10 Sudoeste 0 1014.2 1.3 100
2020-01-06 11:00:00 0.4 4 Sur 7 Sudeste 0 1013.8 1.2 100
2020-01-06 10:00:00 -0.5 3 Sudeste 10 Sudeste 0 1013.2 1.2 100